createdAt,value
2018-12-19T00:02:14.292Z,3.27
2018-12-19T00:04:41.904Z,3.23
2018-12-19T00:07:09.541Z,3.19
2018-12-19T00:09:37.152Z,3.14
2018-12-19T00:12:04.753Z,3.10
2018-12-19T00:14:32.409Z,3.06
2018-12-19T00:17:00.085Z,3.02
2018-12-19T00:19:27.752Z,3.00
2018-12-19T00:21:55.411Z,2.99
2018-12-19T00:24:23.081Z,2.98
2018-12-19T00:26:50.672Z,2.95
2018-12-19T00:29:18.300Z,2.94
2018-12-19T00:31:45.957Z,2.93
2018-12-19T00:34:13.588Z,2.94
2018-12-19T00:36:41.288Z,2.92
2018-12-19T00:39:09.764Z,2.95
2018-12-19T00:41:37.593Z,2.95
2018-12-19T00:44:05.175Z,2.98
2018-12-19T00:46:32.779Z,2.98
2018-12-19T00:49:00.364Z,2.98
2018-12-19T00:51:28.080Z,2.98
2018-12-19T00:53:55.668Z,2.98
2018-12-19T00:56:23.308Z,2.96
2018-12-19T00:58:50.972Z,2.95
2018-12-19T01:01:18.629Z,2.94
2018-12-19T01:03:46.296Z,2.93
2018-12-19T01:06:14.000Z,2.92
2018-12-19T01:08:41.615Z,2.89
2018-12-19T01:11:09.224Z,2.87
2018-12-19T01:13:36.819Z,2.87
2018-12-19T01:16:04.432Z,2.84
2018-12-19T01:18:32.071Z,2.85
2018-12-19T01:20:59.733Z,2.85
2018-12-19T01:23:27.395Z,2.85
2018-12-19T01:25:55.060Z,2.85
2018-12-19T01:28:22.720Z,2.82
2018-12-19T01:30:50.387Z,2.82
2018-12-19T01:33:18.047Z,2.81
2018-12-19T01:35:45.707Z,2.81
2018-12-19T01:38:13.372Z,2.82
2018-12-19T01:40:41.036Z,2.81
2018-12-19T01:43:08.702Z,2.80
2018-12-19T01:45:36.361Z,2.79
2018-12-19T01:48:03.944Z,2.80
2018-12-19T01:50:31.581Z,2.78
2018-12-19T01:52:59.240Z,2.77
2018-12-19T01:55:26.904Z,2.76
2018-12-19T01:57:54.573Z,2.74
2018-12-19T02:00:24.176Z,2.71
2018-12-19T02:02:51.844Z,2.69
2018-12-19T02:05:19.508Z,2.64
2018-12-19T02:07:47.172Z,2.59
2018-12-19T02:10:14.828Z,2.54
2018-12-19T02:12:42.488Z,2.50
2018-12-19T02:15:10.151Z,2.45
2018-12-19T02:17:37.764Z,2.40
2018-12-19T02:20:05.786Z,2.35
2018-12-19T02:22:33.404Z,2.29
2018-12-19T02:25:01.116Z,2.26
2018-12-19T02:27:32.424Z,2.23
2018-12-19T02:30:00.012Z,2.19
2018-12-19T02:32:27.696Z,2.16
2018-12-19T02:34:55.293Z,2.11
2018-12-19T02:37:23.021Z,2.08
2018-12-19T02:39:50.685Z,2.06
2018-12-19T02:42:18.309Z,2.04
2018-12-19T02:44:45.895Z,2.01
2018-12-19T02:47:13.557Z,1.99
2018-12-19T02:49:41.237Z,1.96
2018-12-19T02:52:08.886Z,1.94
2018-12-19T02:54:36.556Z,1.92
2018-12-19T02:57:04.221Z,1.87
2018-12-19T02:59:31.875Z,1.87
2018-12-19T03:01:59.549Z,1.85
2018-12-19T03:04:27.216Z,1.84
2018-12-19T03:06:54.888Z,1.82
2018-12-19T03:09:22.541Z,1.81
2018-12-19T03:11:50.282Z,1.80
2018-12-19T03:14:17.956Z,1.78
2018-12-19T03:16:45.625Z,1.76
2018-12-19T03:19:13.373Z,1.77
2018-12-19T03:21:41.039Z,1.73
2018-12-19T03:24:08.712Z,1.73
2018-12-19T03:26:36.378Z,1.71
2018-12-19T03:29:04.040Z,1.70
2018-12-19T03:31:31.701Z,1.68
2018-12-19T03:33:59.376Z,1.67
2018-12-19T03:36:27.033Z,1.68
2018-12-19T03:38:54.688Z,1.67
2018-12-19T03:41:22.354Z,1.65
2018-12-19T03:43:50.122Z,1.64
2018-12-19T03:46:17.782Z,1.62
2018-12-19T03:48:50.999Z,1.60
2018-12-19T03:51:18.636Z,1.59
2018-12-19T03:53:46.295Z,1.58
2018-12-19T03:56:13.970Z,1.59
2018-12-19T03:58:41.732Z,1.59
2018-12-19T04:01:09.325Z,1.58
2018-12-19T04:03:37.052Z,1.59
2018-12-19T04:06:04.655Z,1.58
2018-12-19T04:08:32.380Z,1.58
2018-12-19T04:11:00.039Z,1.57
2018-12-19T04:13:27.708Z,1.58
2018-12-19T04:15:55.296Z,1.57
2018-12-19T04:18:22.929Z,1.56
2018-12-19T04:20:50.583Z,1.55
2018-12-19T04:23:18.253Z,1.55
2018-12-19T04:25:45.913Z,1.56
2018-12-19T04:28:13.587Z,1.54
2018-12-19T04:30:41.240Z,1.53
2018-12-19T04:33:08.904Z,1.51
2018-12-19T04:35:36.548Z,1.52
2018-12-19T04:38:04.185Z,1.51
2018-12-19T04:40:31.895Z,1.51
2018-12-19T04:42:59.561Z,1.50
2018-12-19T04:45:27.226Z,1.50
2018-12-19T04:47:54.890Z,1.50
2018-12-19T04:50:22.544Z,1.50
2018-12-19T04:52:50.204Z,1.49
2018-12-19T04:55:17.877Z,1.49
2018-12-19T04:57:45.545Z,1.49
2018-12-19T05:00:13.199Z,1.49
2018-12-19T05:02:40.851Z,1.48
2018-12-19T05:05:08.519Z,1.48
2018-12-19T05:07:36.160Z,1.48
2018-12-19T05:10:04.069Z,1.46
2018-12-19T05:12:31.717Z,1.47
2018-12-19T05:14:59.375Z,1.47
2018-12-19T05:17:27.097Z,1.46
2018-12-19T05:19:54.989Z,1.47
2018-12-19T05:22:22.581Z,1.45
2018-12-19T05:24:50.232Z,1.46
2018-12-19T05:27:17.953Z,1.47
2018-12-19T05:29:45.670Z,1.47
2018-12-19T05:32:13.265Z,1.48
2018-12-19T05:34:41.049Z,1.48
2018-12-19T05:37:08.752Z,1.50
2018-12-19T05:39:36.415Z,1.51
2018-12-19T05:42:04.080Z,1.52
2018-12-19T05:44:31.826Z,1.54
2018-12-19T05:46:59.520Z,1.56
2018-12-19T05:49:27.240Z,1.58
2018-12-19T05:51:54.852Z,1.60
2018-12-19T05:54:22.506Z,1.61
2018-12-19T05:56:50.151Z,1.62
2018-12-19T05:59:17.747Z,1.62
2018-12-19T06:01:45.385Z,1.65
2018-12-19T06:04:13.048Z,1.64
2018-12-19T06:06:40.708Z,1.67
2018-12-19T06:09:08.360Z,1.67
2018-12-19T06:11:36.041Z,1.70
2018-12-19T06:14:03.725Z,1.70
2018-12-19T06:16:31.367Z,1.72
2018-12-19T06:18:58.956Z,1.73
2018-12-19T06:21:26.689Z,1.76
2018-12-19T06:23:54.413Z,1.76
2018-12-19T06:26:22.024Z,1.78
2018-12-19T06:28:49.761Z,1.77
2018-12-19T06:31:17.436Z,1.79
2018-12-19T06:33:45.476Z,1.79
2018-12-19T06:36:13.181Z,1.80
2018-12-19T06:38:40.840Z,1.67
2018-12-19T06:41:08.574Z,1.85
2018-12-19T06:43:36.267Z,1.87
2018-12-19T06:46:03.933Z,1.89
2018-12-19T06:48:31.549Z,1.91
2018-12-19T06:50:59.141Z,1.92
2018-12-19T06:53:26.901Z,1.94
2018-12-19T06:55:54.576Z,1.95
2018-12-19T06:58:22.235Z,1.97
2018-12-19T07:00:49.905Z,1.98
2018-12-19T07:03:17.573Z,1.99
2018-12-19T07:05:45.241Z,1.97
2018-12-19T07:08:12.980Z,1.98
2018-12-19T07:10:40.746Z,1.97
2018-12-19T07:13:08.482Z,1.95
2018-12-19T07:15:36.188Z,1.92
2018-12-19T07:18:03.853Z,1.90
2018-12-19T07:20:31.516Z,1.87
2018-12-19T07:22:59.176Z,1.86
2018-12-19T07:25:26.927Z,1.82
2018-12-19T07:27:54.595Z,1.79
2018-12-19T07:30:22.192Z,1.77
2018-12-19T07:32:49.830Z,1.76
2018-12-19T07:35:17.555Z,1.75
2018-12-19T07:37:45.256Z,1.73
2018-12-19T07:40:12.921Z,1.73
2018-12-19T07:42:40.585Z,1.74
2018-12-19T07:45:08.229Z,1.72
2018-12-19T07:47:35.850Z,1.70
2018-12-19T07:50:04.388Z,1.72
2018-12-19T07:52:32.043Z,1.75
2018-12-19T07:54:59.725Z,1.75
2018-12-19T07:57:33.259Z,1.78
2018-12-19T08:00:00.910Z,1.81
2018-12-19T08:02:28.634Z,1.82
2018-12-19T08:04:56.292Z,1.83
2018-12-19T08:07:23.959Z,1.86
2018-12-19T08:09:51.578Z,1.90
2018-12-19T08:12:19.278Z,1.91
2018-12-19T08:14:46.957Z,1.91
2018-12-19T08:17:14.625Z,1.93
2018-12-19T08:19:42.595Z,1.94
2018-12-19T08:22:10.252Z,1.79
2018-12-19T08:24:37.916Z,1.98
2018-12-19T08:27:05.503Z,1.98
2018-12-19T08:29:33.135Z,1.99
2018-12-19T08:32:00.725Z,2.02
2018-12-19T08:34:28.369Z,2.05
2018-12-19T08:36:55.959Z,2.07
2018-12-19T08:39:23.924Z,2.10
2018-12-19T08:41:51.867Z,2.14
2018-12-19T08:44:19.483Z,2.16
2018-12-19T08:46:47.073Z,2.18
2018-12-19T08:49:14.693Z,2.18
2018-12-19T08:51:42.564Z,2.19
2018-12-19T08:54:10.288Z,2.20
2018-12-19T08:56:37.950Z,2.23
2018-12-19T08:59:05.708Z,2.25
2018-12-19T09:01:33.372Z,2.25
2018-12-19T09:04:01.042Z,2.28
2018-12-19T09:06:28.697Z,2.28
2018-12-19T09:08:56.363Z,2.33
2018-12-19T09:11:23.952Z,2.37
2018-12-19T09:13:51.694Z,2.40
2018-12-19T09:16:19.356Z,2.42
2018-12-19T09:18:46.948Z,2.45
2018-12-19T09:21:14.676Z,2.47
2018-12-19T09:23:42.333Z,2.48
2018-12-19T09:26:09.953Z,2.53
2018-12-19T09:28:37.565Z,2.54
2018-12-19T09:31:05.215Z,2.55
2018-12-19T09:33:32.879Z,2.56
2018-12-19T09:36:00.549Z,2.58
2018-12-19T09:38:28.218Z,2.60
2018-12-19T09:40:55.882Z,2.63
2018-12-19T09:43:23.529Z,2.64
2018-12-19T09:45:51.200Z,2.66
2018-12-19T09:48:19.046Z,2.69
2018-12-19T09:50:46.728Z,2.70
2018-12-19T09:53:14.663Z,2.72
2018-12-19T09:55:42.281Z,2.74
2018-12-19T09:58:09.929Z,2.76
2018-12-19T10:00:37.586Z,2.72
2018-12-19T10:03:05.249Z,2.77
2018-12-19T10:05:32.861Z,2.79
2018-12-19T10:08:00.706Z,2.80
2018-12-19T10:10:28.368Z,2.81
2018-12-19T10:12:56.105Z,2.82
2018-12-19T10:15:23.725Z,2.83
2018-12-19T10:17:51.443Z,2.85
2018-12-19T10:20:19.296Z,2.87
2018-12-19T10:22:46.965Z,2.89
2018-12-19T10:25:14.629Z,2.91
2018-12-19T10:27:42.294Z,2.93
2018-12-19T10:30:11.280Z,2.94
2018-12-19T10:32:39.234Z,2.95
2018-12-19T10:35:09.266Z,2.97
2018-12-19T10:37:37.825Z,2.99
2018-12-19T10:40:08.277Z,2.99
2018-12-19T10:42:36.952Z,3.01
2018-12-19T10:45:06.467Z,3.04
2018-12-19T10:47:34.145Z,3.07
2018-12-19T10:50:01.795Z,3.07
2018-12-19T10:52:29.457Z,3.07
2018-12-19T10:54:57.126Z,3.05
2018-12-19T10:57:24.745Z,3.06
2018-12-19T10:59:52.444Z,3.07
2018-12-19T11:02:20.108Z,3.09
2018-12-19T11:04:49.276Z,3.10
2018-12-19T11:07:16.983Z,3.12
2018-12-19T11:09:44.631Z,3.12
2018-12-19T11:12:12.244Z,3.15
2018-12-19T11:14:40.067Z,3.15
2018-12-19T11:17:07.929Z,3.16
2018-12-19T11:19:35.597Z,3.18
2018-12-19T11:22:03.273Z,3.18
2018-12-19T11:24:30.869Z,3.19
2018-12-19T11:26:58.527Z,3.19
2018-12-19T11:29:26.258Z,3.17
2018-12-19T11:31:53.912Z,3.19
2018-12-19T11:34:21.582Z,3.20
2018-12-19T11:36:49.236Z,3.22
2018-12-19T11:39:16.891Z,3.24
2018-12-19T11:41:44.496Z,3.28
2018-12-19T11:44:12.120Z,3.29
2018-12-19T11:46:39.787Z,3.31
2018-12-19T11:49:07.451Z,3.32
2018-12-19T11:51:35.213Z,3.28
2018-12-19T11:54:02.876Z,3.33
2018-12-19T11:56:30.545Z,3.35
2018-12-19T11:58:58.155Z,3.35
2018-12-19T12:01:25.778Z,3.33
2018-12-19T12:03:53.428Z,3.33
2018-12-19T12:06:21.025Z,3.33
2018-12-19T12:08:48.742Z,3.34
2018-12-19T12:11:16.412Z,3.34
2018-12-19T12:13:44.072Z,3.21
2018-12-19T12:16:11.837Z,3.36
2018-12-19T12:18:39.500Z,3.37
2018-12-19T12:21:07.164Z,3.39
2018-12-19T12:23:34.784Z,3.39
2018-12-19T12:26:02.502Z,3.44
2018-12-19T12:28:30.111Z,3.48
2018-12-19T12:30:58.220Z,3.48
2018-12-19T12:33:25.891Z,3.51
2018-12-19T12:35:53.876Z,3.51
2018-12-19T12:38:21.531Z,3.49
2018-12-19T12:40:49.188Z,3.44
2018-12-19T12:43:16.850Z,3.46
2018-12-19T12:45:44.516Z,3.44
2018-12-19T12:48:12.186Z,3.47
2018-12-19T12:50:39.849Z,3.46
2018-12-19T12:53:07.504Z,3.46
2018-12-19T12:55:35.159Z,3.46
2018-12-19T12:58:02.916Z,3.45
2018-12-19T13:00:30.601Z,3.45
2018-12-19T13:02:58.235Z,3.48
2018-12-19T13:05:25.816Z,3.48
2018-12-19T13:07:53.476Z,3.48
2018-12-19T13:10:21.249Z,3.46
2018-12-19T13:12:48.913Z,3.46
2018-12-19T13:15:18.467Z,3.42
2018-12-19T13:17:46.400Z,3.40
2018-12-19T13:20:14.008Z,3.39
2018-12-19T13:22:41.593Z,3.39
2018-12-19T13:25:09.217Z,3.35
2018-12-19T13:27:36.799Z,3.35
2018-12-19T13:30:07.163Z,3.36
2018-12-19T13:32:34.749Z,3.37
2018-12-19T13:35:02.374Z,3.39
2018-12-19T13:37:30.041Z,3.40
2018-12-19T13:39:57.705Z,3.40
2018-12-19T13:42:25.296Z,3.37
2018-12-19T13:44:52.906Z,3.34
2018-12-19T13:47:20.488Z,3.35
2018-12-19T13:49:48.091Z,3.36
2018-12-19T13:52:15.718Z,3.37
2018-12-19T13:54:43.333Z,3.38
2018-12-19T13:57:11.011Z,3.38
2018-12-19T13:59:38.695Z,3.40
2018-12-19T14:02:06.288Z,3.43
2018-12-19T14:04:33.951Z,3.44
2018-12-19T14:07:01.584Z,3.46
2018-12-19T14:09:29.211Z,3.48
2018-12-19T14:11:56.912Z,3.47
2018-12-19T14:14:24.523Z,3.46
2018-12-19T14:16:52.170Z,3.47
2018-12-19T14:19:19.907Z,3.45
2018-12-19T14:21:47.567Z,3.42
2018-12-19T14:24:15.171Z,3.44
2018-12-19T14:26:42.782Z,3.42
2018-12-19T14:29:10.537Z,3.43
2018-12-19T14:31:38.215Z,3.42
2018-12-19T14:34:05.875Z,3.44
2018-12-19T14:36:33.644Z,3.45
2018-12-19T14:39:01.312Z,3.47
2018-12-19T14:41:28.969Z,3.42
2018-12-19T14:43:56.632Z,3.38
2018-12-19T14:46:24.296Z,3.37
2018-12-19T14:48:51.956Z,3.34
2018-12-19T14:51:19.620Z,3.32
2018-12-19T14:53:47.384Z,3.30
2018-12-19T14:56:15.048Z,3.28
2018-12-19T14:58:42.712Z,3.26
2018-12-19T15:01:10.373Z,3.24
2018-12-19T15:03:38.038Z,3.24
2018-12-19T15:06:05.703Z,3.23
2018-12-19T15:08:33.373Z,3.21
2018-12-19T15:11:01.023Z,3.22
2018-12-19T15:13:28.652Z,3.21
2018-12-19T15:16:01.369Z,3.22
2018-12-19T15:21:03.074Z,3.20
2018-12-19T15:23:30.700Z,3.19
2018-12-19T15:25:58.463Z,3.18
2018-12-19T15:28:26.062Z,3.19
2018-12-19T15:30:53.802Z,3.20
2018-12-19T15:33:21.466Z,3.16
2018-12-19T15:35:49.124Z,3.19
2018-12-19T15:38:16.792Z,3.19
2018-12-19T15:40:44.444Z,3.19
2018-12-19T15:43:12.117Z,3.21
2018-12-19T15:45:39.767Z,3.19
2018-12-19T15:48:07.537Z,3.19
2018-12-19T15:50:35.167Z,3.20
2018-12-19T15:53:02.849Z,3.21
2018-12-19T15:55:30.524Z,3.19
2018-12-19T15:57:58.197Z,3.20
2018-12-19T16:00:25.853Z,3.19
2018-12-19T16:02:53.509Z,3.19
2018-12-19T16:05:21.180Z,3.20
2018-12-19T16:07:48.851Z,3.21
2018-12-19T16:10:16.545Z,3.20
2018-12-19T16:12:44.198Z,3.21
2018-12-19T16:15:11.793Z,3.23
2018-12-19T16:17:39.457Z,3.23
2018-12-19T16:20:08.597Z,3.25
2018-12-19T16:22:36.261Z,3.27
2018-12-19T16:25:04.410Z,3.30
2018-12-19T16:27:32.047Z,3.31
2018-12-19T16:29:59.645Z,3.31
2018-12-19T16:32:27.260Z,3.31
2018-12-19T16:34:54.859Z,3.31
2018-12-19T16:37:22.542Z,3.29
2018-12-19T16:39:50.210Z,3.32
2018-12-19T16:42:17.855Z,3.32
2018-12-19T16:44:45.462Z,3.33
2018-12-19T16:47:13.276Z,3.33
2018-12-19T16:49:40.868Z,3.29
2018-12-19T16:52:08.483Z,3.31
2018-12-19T16:54:36.073Z,3.32
2018-12-19T16:57:03.727Z,3.33
2018-12-19T16:59:31.354Z,3.33
2018-12-19T17:01:59.069Z,3.36
2018-12-19T17:04:26.724Z,3.39
2018-12-19T17:06:54.311Z,3.43
2018-12-19T17:09:21.929Z,3.44
2018-12-19T17:11:49.603Z,3.46
2018-12-19T17:14:17.267Z,3.45
2018-12-19T17:16:44.937Z,3.44
2018-12-19T17:19:12.610Z,3.42
2018-12-19T17:21:40.258Z,3.39
2018-12-19T17:24:08.023Z,3.40
2018-12-19T17:26:35.697Z,3.40
2018-12-19T17:29:03.307Z,3.40
2018-12-19T17:31:30.905Z,3.39
2018-12-19T17:33:58.514Z,3.38
2018-12-19T17:36:26.155Z,3.38
2018-12-19T17:38:53.799Z,3.39
2018-12-19T17:41:21.459Z,3.40
2018-12-19T17:43:49.431Z,3.40
2018-12-19T17:46:17.096Z,3.41
2018-12-19T17:48:44.756Z,3.42
2018-12-19T17:51:12.420Z,3.44
2018-12-19T17:53:40.022Z,3.43
2018-12-19T17:56:07.756Z,3.45
2018-12-19T17:58:35.412Z,3.48
2018-12-19T18:01:03.057Z,3.48
2018-12-19T18:03:30.743Z,3.51
2018-12-19T18:05:58.406Z,3.52
2018-12-19T18:08:26.061Z,3.52
2018-12-19T18:10:53.724Z,3.52
2018-12-19T18:13:21.325Z,3.53
2018-12-19T18:15:48.941Z,3.53
2018-12-19T18:18:16.546Z,3.53
2018-12-19T18:20:44.160Z,3.54
2018-12-19T18:23:11.832Z,3.54
2018-12-19T18:25:39.435Z,3.53
2018-12-19T18:28:07.061Z,3.53
2018-12-19T18:30:34.715Z,3.51
2018-12-19T18:33:02.384Z,3.54
2018-12-19T18:35:30.039Z,3.54
2018-12-19T18:37:57.708Z,3.54
2018-12-19T18:40:25.376Z,3.56
2018-12-19T18:42:53.036Z,3.58
2018-12-19T18:45:20.692Z,3.60
2018-12-19T18:47:48.289Z,3.63
2018-12-19T18:50:15.947Z,3.65
2018-12-19T18:52:43.585Z,3.64
2018-12-19T18:55:11.248Z,3.64
2018-12-19T18:57:38.903Z,3.64
2018-12-19T19:00:08.282Z,3.66
2018-12-19T19:02:35.983Z,3.66
2018-12-19T19:05:04.386Z,3.65
2018-12-19T19:07:32.124Z,3.66
2018-12-19T19:09:59.771Z,3.66
2018-12-19T19:12:27.521Z,3.65
2018-12-19T19:14:55.213Z,3.67
2018-12-19T19:17:22.877Z,3.66
2018-12-19T19:19:50.545Z,3.64
2018-12-19T19:22:18.199Z,3.63
2018-12-19T19:24:45.965Z,3.60
2018-12-19T19:27:13.628Z,3.62
2018-12-19T19:29:41.260Z,3.62
2018-12-19T19:32:08.906Z,3.62
2018-12-19T19:34:36.626Z,3.61
2018-12-19T19:37:04.280Z,3.62
2018-12-19T19:39:32.054Z,3.62
2018-12-19T19:41:59.709Z,3.62
2018-12-19T19:44:27.381Z,3.63
2018-12-19T19:46:54.996Z,3.63
2018-12-19T19:49:22.583Z,3.62
2018-12-19T19:51:50.215Z,3.64
2018-12-19T19:54:17.808Z,3.66
2018-12-19T19:56:45.434Z,3.68
2018-12-19T19:59:13.081Z,3.66
2018-12-19T20:01:40.695Z,3.67
2018-12-19T20:04:09.089Z,3.68
2018-12-19T20:06:36.748Z,3.70
2018-12-19T20:09:07.093Z,3.74
2018-12-19T20:11:34.740Z,3.75
2018-12-19T20:14:02.396Z,3.73
2018-12-19T20:16:30.064Z,3.77
2018-12-19T20:18:57.709Z,3.74
2018-12-19T20:21:25.320Z,3.77
2018-12-19T20:23:53.162Z,3.76
2018-12-19T20:26:20.816Z,3.74
2018-12-19T20:28:48.408Z,3.73
2018-12-19T20:31:16.154Z,3.76
2018-12-19T20:33:43.799Z,3.77
2018-12-19T20:36:11.473Z,3.75
2018-12-19T20:38:39.132Z,3.78
2018-12-19T20:41:06.804Z,3.76
2018-12-19T20:43:39.952Z,3.75
2018-12-19T20:46:04.240Z,3.76
2018-12-19T20:48:31.942Z,3.76
2018-12-19T20:50:59.558Z,3.77
2018-12-19T20:53:27.255Z,3.77
2018-12-19T20:55:54.891Z,3.77
2018-12-19T20:58:22.783Z,3.75
2018-12-19T21:00:50.709Z,3.76
2018-12-19T21:03:18.427Z,3.71
2018-12-19T21:05:46.135Z,3.75
2018-12-19T21:08:13.753Z,3.76
2018-12-19T21:10:41.495Z,3.77
2018-12-19T21:13:09.176Z,3.78
2018-12-19T21:15:37.026Z,3.79
2018-12-19T21:18:10.351Z,3.77
2018-12-19T21:20:38.027Z,3.78
2018-12-19T21:23:05.883Z,3.79
2018-12-19T21:25:33.516Z,3.79
2018-12-19T21:28:01.397Z,3.81
2018-12-19T21:30:29.223Z,3.83
2018-12-19T21:32:56.832Z,3.85
2018-12-19T21:35:24.488Z,3.86
2018-12-19T21:37:52.197Z,3.89
2018-12-19T21:40:19.915Z,3.91
2018-12-19T21:42:47.747Z,3.93
2018-12-19T21:45:15.351Z,3.92
2018-12-19T21:47:43.073Z,3.96
2018-12-19T21:50:10.843Z,3.97
2018-12-19T21:52:38.645Z,3.94
2018-12-19T21:55:06.419Z,3.99
2018-12-19T21:57:34.071Z,4.01
2018-12-19T22:00:01.759Z,4.01
2018-12-19T22:02:29.496Z,4.01
2018-12-19T22:04:57.113Z,4.05
2018-12-19T22:07:25.015Z,4.05
2018-12-19T22:09:53.390Z,4.08
2018-12-19T22:12:21.063Z,4.06
2018-12-19T22:14:48.690Z,4.11
2018-12-19T22:17:21.923Z,4.09
2018-12-19T22:19:49.574Z,4.11
2018-12-19T22:22:17.352Z,4.12
2018-12-19T22:24:45.045Z,4.13
2018-12-19T22:27:12.855Z,4.14
2018-12-19T22:29:40.548Z,4.17
2018-12-19T22:32:08.386Z,4.18
2018-12-19T22:34:36.267Z,4.15
2018-12-19T22:37:04.050Z,4.18
2018-12-19T22:39:31.813Z,4.20
2018-12-19T22:41:59.544Z,4.21
2018-12-19T22:44:27.266Z,4.23
2018-12-19T22:46:55.041Z,4.25
2018-12-19T22:49:22.792Z,4.25
2018-12-19T22:51:50.444Z,4.30
2018-12-19T22:54:18.204Z,4.32
2018-12-19T22:56:45.949Z,4.32
2018-12-19T22:59:13.696Z,4.33
2018-12-19T23:01:47.104Z,4.33
2018-12-19T23:04:14.778Z,4.33
2018-12-19T23:06:42.449Z,4.29
2018-12-19T23:09:10.112Z,4.30
2018-12-19T23:11:37.767Z,4.29
2018-12-19T23:14:05.452Z,4.27
2018-12-19T23:16:33.357Z,4.27
2018-12-19T23:19:01.171Z,4.26
2018-12-19T23:21:28.849Z,4.24
2018-12-19T23:23:56.458Z,4.23
2018-12-19T23:26:24.264Z,4.20
2018-12-19T23:28:53.811Z,4.15
2018-12-19T23:31:21.485Z,4.13
2018-12-19T23:33:49.304Z,4.13
2018-12-19T23:36:17.059Z,4.11
2018-12-19T23:38:44.743Z,4.11
2018-12-19T23:41:13.114Z,4.10
2018-12-19T23:43:40.767Z,4.10
2018-12-19T23:46:08.823Z,4.09
2018-12-19T23:48:36.515Z,4.09
2018-12-19T23:51:04.198Z,4.11
2018-12-19T23:53:32.134Z,4.12
2018-12-19T23:56:00.917Z,4.13
2018-12-19T23:58:28.764Z,4.16
